Time,TemperatureF,DewpointF,PressureIn,WindDirection,WindDirectionDegrees,WindSpeedMPH,WindSpeedGustMPH,Humidity,HourlyPrecipIn,Conditions,Clouds,dailyrainin,SoftwareType,DateUTC
2013-09-25 00:12:00,58.0,52.0,29.89,SE,135,0.0,0.0,79,0.00,,,0.00,,2013-09-25 05:12:00,
2013-09-25 00:23:00,58.0,52.0,29.89,SE,135,0.0,0.0,79,0.00,,,0.00,,2013-09-25 05:23:00,
2013-09-25 00:53:00,58.0,52.0,29.89,SE,135,0.0,0.0,80,0.00,,,0.00,,2013-09-25 05:53:00,
2013-09-25 01:13:00,57.0,51.0,29.89,SE,135,0.0,0.0,80,0.00,,,0.00,,2013-09-25 06:13:00,
2013-09-25 01:23:00,57.0,51.0,29.89,SE,135,0.0,0.0,80,0.00,,,0.00,,2013-09-25 06:23:00,
2013-09-25 01:52:00,57.0,51.0,29.89,SE,135,0.0,0.0,80,0.00,,,0.00,,2013-09-25 06:52:00,
2013-09-25 02:12:00,56.0,50.0,29.90,SE,135,0.0,0.0,81,0.00,,,0.00,,2013-09-25 07:12:00,
2013-09-25 02:22:00,56.0,50.0,29.90,SE,135,0.0,0.0,81,0.00,,,0.00,,2013-09-25 07:22:00,
2013-09-25 02:53:00,55.0,49.0,29.89,SE,135,0.0,0.0,80,0.00,,,0.00,,2013-09-25 07:53:00,
2013-09-25 03:12:00,55.0,49.0,29.89,SE,135,0.0,0.0,80,0.00,,,0.00,,2013-09-25 08:12:00,
2013-09-25 03:21:00,55.0,49.0,29.89,SE,135,0.0,0.0,80,0.00,,,0.00,,2013-09-25 08:21:00,
2013-09-25 03:53:00,55.0,49.0,29.89,SE,135,0.0,0.0,80,0.00,,,0.00,,2013-09-25 08:53:00,
2013-09-25 04:11:00,54.0,48.0,29.89,SE,135,0.0,0.0,81,0.00,,,0.00,,2013-09-25 09:11:00,
2013-09-25 04:22:00,54.0,48.0,29.89,SE,135,0.0,0.0,81,0.00,,,0.00,,2013-09-25 09:22:00,
2013-09-25 04:54:00,54.0,48.0,29.89,SE,135,0.0,0.0,81,0.00,,,0.00,,2013-09-25 09:54:00,
2013-09-25 05:12:00,53.0,48.0,29.89,SE,135,0.0,0.0,82,0.00,,,0.00,,2013-09-25 10:12:00,
2013-09-25 05:23:00,53.0,48.0,29.89,SE,135,0.0,0.0,82,0.00,,,0.00,,2013-09-25 10:23:00,
2013-09-25 05:53:00,53.0,48.0,29.89,SE,135,0.0,0.0,82,0.00,,,0.00,,2013-09-25 10:53:00,
2013-09-25 06:12:00,52.0,47.0,29.89,SE,135,0.0,0.0,82,0.00,,,0.00,,2013-09-25 11:12:00,
2013-09-25 06:22:00,52.0,47.0,29.89,SE,135,0.0,0.0,82,0.00,,,0.00,,2013-09-25 11:22:00,
2013-09-25 06:52:00,52.0,47.0,29.90,SE,135,0.0,0.0,82,0.00,,,0.00,,2013-09-25 11:52:00,
2013-09-25 07:12:00,52.0,47.0,29.89,SE,135,0.0,0.0,82,0.00,,,0.00,,2013-09-25 12:12:00,
2013-09-25 07:22:00,52.0,47.0,29.89,SE,135,0.0,0.0,82,0.00,,,0.00,,2013-09-25 12:22:00,
2013-09-25 07:52:00,51.0,46.0,29.89,SE,135,0.0,0.0,82,0.00,,,0.00,,2013-09-25 12:52:00,
2013-09-25 08:22:00,51.0,46.0,29.89,SE,135,0.0,0.0,82,0.00,,,0.00,,2013-09-25 13:22:00,
2013-09-25 08:52:00,51.0,46.0,29.89,SE,135,0.0,0.0,83,0.00,,,0.00,,2013-09-25 13:52:00,
2013-09-25 09:22:00,52.0,47.0,29.89,South,180,0.0,0.0,84,0.00,,,0.00,,2013-09-25 14:22:00,
2013-09-25 09:52:00,54.0,50.0,29.89,SE,135,0.0,0.0,85,0.00,,,0.00,,2013-09-25 14:52:00,
2013-09-25 10:11:00,56.0,52.0,29.90,SE,141,1.0,2.0,85,0.00,,,0.00,,2013-09-25 15:11:00,
2013-09-25 10:22:00,56.0,52.0,29.90,SE,141,1.0,2.0,85,0.00,,,0.00,,2013-09-25 15:22:00,
2013-09-25 10:54:00,58.0,54.0,29.89,SE,140,2.0,3.0,85,0.00,,,0.00,,2013-09-25 15:54:00,
2013-09-25 11:13:00,60.0,55.0,29.89,SE,135,2.0,2.0,84,0.00,,,0.00,,2013-09-25 16:13:00,
2013-09-25 11:23:00,60.0,55.0,29.89,SE,135,2.0,2.0,84,0.00,,,0.00,,2013-09-25 16:23:00,
2013-09-25 11:53:00,62.0,56.0,29.89,SE,135,5.0,5.0,82,0.00,,,0.00,,2013-09-25 16:53:00,
2013-09-25 12:13:00,64.0,57.0,29.89,SW,225,1.0,2.0,79,0.00,,,0.00,,2013-09-25 17:13:00,
2013-09-25 12:23:00,64.0,57.0,29.89,SW,225,1.0,2.0,79,0.00,,,0.00,,2013-09-25 17:23:00,
2013-09-25 12:52:00,65.0,58.0,29.88,SW,215,2.0,2.0,77,0.00,,,0.00,,2013-09-25 17:52:00,
2013-09-25 13:13:00,67.0,58.0,29.87,SSW,198,2.0,2.0,74,0.00,,,0.00,,2013-09-25 18:13:00,
2013-09-25 13:22:00,67.0,58.0,29.87,SSW,198,2.0,2.0,74,0.00,,,0.00,,2013-09-25 18:22:00,
2013-09-25 13:52:00,68.0,58.0,29.86,SE,135,3.0,3.0,71,0.00,,,0.00,,2013-09-25 18:52:00,
2013-09-25 14:11:00,68.0,58.0,29.85,SE,135,4.0,4.0,70,0.00,,,0.00,,2013-09-25 19:11:00,
2013-09-25 14:22:00,68.0,58.0,29.85,SE,135,4.0,4.0,70,0.00,,,0.00,,2013-09-25 19:22:00,
2013-09-25 14:53:00,68.0,58.0,29.84,SSE,158,1.0,1.0,70,0.00,,,0.00,,2013-09-25 19:53:00,
2013-09-25 15:12:00,67.0,56.0,29.84,SE,135,3.0,3.0,69,0.00,,,0.00,,2013-09-25 20:12:00,
2013-09-25 15:22:00,67.0,56.0,29.84,SE,135,3.0,3.0,69,0.00,,,0.00,,2013-09-25 20:22:00,
2013-09-25 15:52:00,67.0,56.0,29.83,SE,135,3.0,4.0,69,0.00,,,0.00,,2013-09-25 20:52:00,
2013-09-25 16:12:00,67.0,56.0,29.83,SSE,158,1.0,2.0,68,0.00,,,0.00,,2013-09-25 21:12:00,
2013-09-25 16:22:00,67.0,56.0,29.83,SSE,158,1.0,2.0,68,0.00,,,0.00,,2013-09-25 21:22:00,
2013-09-25 16:55:00,68.0,57.0,29.82,SSE,153,3.0,5.0,68,0.00,,,0.00,,2013-09-25 21:55:00,
2013-09-25 17:14:00,68.0,56.0,29.82,SSE,158,3.0,3.0,65,0.00,,,0.00,,2013-09-25 22:14:00,
2013-09-25 17:23:00,68.0,56.0,29.82,SSE,158,3.0,3.0,65,0.00,,,0.00,,2013-09-25 22:23:00,
2013-09-25 17:53:00,67.0,55.0,29.81,SE,140,2.0,3.0,65,0.00,,,0.00,,2013-09-25 22:53:00,
2013-09-25 18:12:00,67.0,56.0,29.81,SE,135,2.0,3.0,68,0.00,,,0.00,,2013-09-25 23:12:00,
2013-09-25 18:22:00,67.0,56.0,29.81,SE,135,2.0,3.0,68,0.00,,,0.00,,2013-09-25 23:22:00,
2013-09-25 18:42:00,66.0,55.0,29.81,SSE,151,3.0,3.0,68,0.00,,,0.00,,2013-09-25 23:42:00,
2013-09-25 18:53:00,66.0,55.0,29.81,SSE,151,3.0,3.0,68,0.00,,,0.00,,2013-09-25 23:53:00,
2013-09-25 19:22:00,66.0,56.0,29.81,SE,135,0.0,0.0,70,0.00,,,0.00,,2013-09-26 00:22:00,
2013-09-25 19:52:00,65.0,55.0,29.80,SSE,158,0.0,0.0,71,0.00,,,0.00,,2013-09-26 00:52:00,
2013-09-25 20:12:00,64.0,55.0,29.81,SE,135,3.0,3.0,72,0.00,,,0.00,,2013-09-26 01:12:00,
2013-09-25 20:22:00,64.0,55.0,29.81,SE,135,3.0,3.0,72,0.00,,,0.00,,2013-09-26 01:22:00,
2013-09-25 20:52:00,63.0,54.0,29.82,SE,135,2.0,3.0,72,0.00,,,0.00,,2013-09-26 01:52:00,
2013-09-25 21:12:00,62.0,53.0,29.81,SSE,158,2.0,2.0,73,0.00,,,0.00,,2013-09-26 02:12:00,
2013-09-25 21:21:00,62.0,53.0,29.81,SSE,158,2.0,2.0,73,0.00,,,0.00,,2013-09-26 02:21:00,
2013-09-25 22:12:00,62.0,53.0,29.81,SE,135,3.0,3.0,73,0.00,,,0.00,,2013-09-26 03:12:00,
2013-09-25 22:22:00,62.0,53.0,29.81,SE,135,3.0,3.0,73,0.00,,,0.00,,2013-09-26 03:22:00,
2013-09-25 22:55:00,61.0,52.0,29.82,SSE,150,4.0,4.0,73,0.00,,,0.00,,2013-09-26 03:55:00,
2013-09-25 23:14:00,61.0,53.0,29.83,SE,135,3.0,3.0,74,0.00,,,0.00,,2013-09-26 04:14:00,
2013-09-25 23:24:00,61.0,53.0,29.83,SE,135,3.0,3.0,74,0.00,,,0.00,,2013-09-26 04:24:00,
2013-09-25 23:54:00,61.0,53.0,29.83,SSE,153,1.0,2.0,75,0.00,,,0.00,,2013-09-26 04:54:00,